createdAt,value
2018-11-22T00:02:05.067Z,43.78
2018-11-22T00:04:35.063Z,38.23
2018-11-22T00:07:04.636Z,39.58
2018-11-22T00:09:34.188Z,45.58
2018-11-22T00:12:03.827Z,39.98
2018-11-22T00:14:52.352Z,37.20
2018-11-22T00:17:22.016Z,48.90
2018-11-22T00:19:51.588Z,39.00
2018-11-22T00:22:21.153Z,45.95
2018-11-22T00:25:09.392Z,45.48
2018-11-22T00:27:58.293Z,43.65
2018-11-22T00:30:28.222Z,46.63
2018-11-22T00:32:57.794Z,41.30
2018-11-22T00:35:27.641Z,41.15
2018-11-22T00:38:15.857Z,43.25
2018-11-22T00:41:04.351Z,41.90
2018-11-22T00:43:53.383Z,39.15
2018-11-22T00:46:22.928Z,40.90
2018-11-22T00:48:52.973Z,40.63
2018-11-22T00:51:41.794Z,42.45
2018-11-22T00:54:11.401Z,41.30
2018-11-22T00:56:59.974Z,41.33
2018-11-22T00:59:29.991Z,43.25
2018-11-22T01:02:00.189Z,46.63
2018-11-22T01:04:30.398Z,48.13
2018-11-22T01:07:19.469Z,47.98
2018-11-22T01:09:48.966Z,38.70
2018-11-22T01:12:18.867Z,37.30
2018-11-22T01:14:49.212Z,38.73
2018-11-22T01:17:19.108Z,38.28
2018-11-22T01:20:07.580Z,36.45
2018-11-22T01:22:37.554Z,39.85
2018-11-22T01:25:26.347Z,41.75
2018-11-22T01:28:15.227Z,43.95
2018-11-22T01:30:44.843Z,41.95
2018-11-22T01:33:14.409Z,37.33
2018-11-22T01:35:44.224Z,39.73
2018-11-22T01:38:13.702Z,37.60
2018-11-22T01:41:02.203Z,37.15
2018-11-22T01:43:31.796Z,46.20
2018-11-22T01:46:20.678Z,36.50
2018-11-22T01:48:50.841Z,44.55
2018-11-22T01:51:20.730Z,37.10
2018-11-22T01:53:50.329Z,34.92
2018-11-22T01:56:19.955Z,35.73
2018-11-22T01:58:50.101Z,37.85
2018-11-22T02:01:19.629Z,33.33
2018-11-22T02:03:49.476Z,33.95
2018-11-22T02:06:19.019Z,40.63
2018-11-22T02:08:48.591Z,36.53
2018-11-22T02:11:18.104Z,31.48
2018-11-22T02:13:47.984Z,35.80
2018-11-22T02:16:36.494Z,34.60
2018-11-22T02:19:06.068Z,34.40
2018-11-22T02:21:35.940Z,34.23
2018-11-22T02:24:24.094Z,33.00
2018-11-22T02:27:12.916Z,35.63
2018-11-22T02:29:42.836Z,31.65
2018-11-22T02:32:12.326Z,30.50
2018-11-22T02:34:42.183Z,31.20
2018-11-22T02:37:11.996Z,30.10
2018-11-22T02:39:41.937Z,30.52
2018-11-22T02:42:30.384Z,35.38
2018-11-22T02:45:19.047Z,37.30
2018-11-22T02:48:07.811Z,36.23
2018-11-22T02:53:26.057Z,30.85
2018-11-22T02:55:55.975Z,33.83
2018-11-22T02:58:44.713Z,35.43
2018-11-22T03:01:14.244Z,34.15
2018-11-22T03:04:03.384Z,31.25
2018-11-22T03:06:33.347Z,30.27
2018-11-22T03:09:02.928Z,35.40
2018-11-22T03:11:32.881Z,29.30
2018-11-22T03:14:03.014Z,31.23
2018-11-22T03:16:32.947Z,31.12
2018-11-22T03:19:02.445Z,30.17
2018-11-22T03:21:31.976Z,28.23
2018-11-22T03:24:20.771Z,37.17
2018-11-22T03:26:50.717Z,31.68
2018-11-22T03:29:21.401Z,29.92
2018-11-22T03:31:50.903Z,33.58
2018-11-22T03:34:20.758Z,31.52
2018-11-22T03:36:50.583Z,33.88
2018-11-22T03:39:20.581Z,34.03
2018-11-22T03:42:09.454Z,34.00
2018-11-22T03:44:57.924Z,35.95
2018-11-22T03:47:27.385Z,32.20
2018-11-22T03:50:15.885Z,31.55
2018-11-22T03:53:04.355Z,22.58
2018-11-22T03:55:33.943Z,31.95
2018-11-22T03:58:29.859Z,41.33
2018-11-22T04:01:18.716Z,34.83
2018-11-22T04:04:07.264Z,32.23
2018-11-22T04:06:37.078Z,39.13
2018-11-22T04:09:28.548Z,31.62
2018-11-22T04:11:58.061Z,32.60
2018-11-22T04:14:27.589Z,34.70
2018-11-22T04:16:57.637Z,28.87
2018-11-22T04:19:27.544Z,38.25
2018-11-22T04:21:57.344Z,33.42
2018-11-22T04:24:46.093Z,31.48
2018-11-22T04:27:34.975Z,32.30
2018-11-22T04:30:04.561Z,35.45
2018-11-22T04:32:34.118Z,32.00
2018-11-22T04:35:03.999Z,32.93
2018-11-22T04:37:33.857Z,33.48
2018-11-22T04:40:03.846Z,36.95
2018-11-22T04:42:53.381Z,39.03
2018-11-22T04:45:23.177Z,33.88
2018-11-22T04:47:54.070Z,35.98
2018-11-22T04:50:43.725Z,30.85
2018-11-22T04:53:13.309Z,31.93
2018-11-22T04:56:01.818Z,32.40
2018-11-22T04:58:31.715Z,40.60
2018-11-22T05:01:01.242Z,34.20
2018-11-22T05:03:32.014Z,33.23
2018-11-22T05:06:20.672Z,41.13
2018-11-22T05:08:50.207Z,41.13
2018-11-22T05:11:20.060Z,37.55
2018-11-22T05:13:50.267Z,34.33
2018-11-22T05:16:19.711Z,35.17
2018-11-22T05:19:08.522Z,47.30
2018-11-22T05:21:38.351Z,34.03
2018-11-22T05:24:27.224Z,33.58
2018-11-22T05:26:56.831Z,34.83
2018-11-22T05:29:26.400Z,38.53
2018-11-22T05:31:56.279Z,31.77
2018-11-22T05:34:25.820Z,30.77
2018-11-22T05:36:55.834Z,31.60
2018-11-22T05:39:25.692Z,35.60
2018-11-22T05:41:55.645Z,36.95
2018-11-22T05:44:25.136Z,33.70
2018-11-22T05:46:54.660Z,34.55
2018-11-22T05:49:44.278Z,34.48
2018-11-22T05:52:13.817Z,35.75
2018-11-22T05:54:43.308Z,41.95
2018-11-22T05:57:12.979Z,34.43
2018-11-22T06:00:01.395Z,35.60
2018-11-22T06:02:50.076Z,37.67
2018-11-22T06:05:20.802Z,32.48
2018-11-22T06:08:09.323Z,33.88
2018-11-22T06:10:39.427Z,32.67
2018-11-22T06:13:28.041Z,37.38
2018-11-22T06:15:57.545Z,42.67
2018-11-22T06:18:46.081Z,43.00
2018-11-22T06:21:34.638Z,44.05
2018-11-22T06:24:23.417Z,43.78
2018-11-22T06:27:11.936Z,39.73
2018-11-22T06:30:00.729Z,32.00
2018-11-22T06:32:30.938Z,38.30
2018-11-22T06:35:19.839Z,39.70
2018-11-22T06:38:08.516Z,51.45
2018-11-22T06:40:38.353Z,35.70
2018-11-22T06:50:43.800Z,38.95
2018-11-22T06:53:13.658Z,40.65
2018-11-22T06:55:43.188Z,42.40
2018-11-22T06:58:32.080Z,35.38
2018-11-22T07:01:01.908Z,40.78
2018-11-22T07:03:50.475Z,37.60
2018-11-22T07:06:20.387Z,42.80
2018-11-22T07:09:08.928Z,40.28
2018-11-22T07:11:39.284Z,39.78
2018-11-22T07:14:09.487Z,38.55
2018-11-22T07:16:57.700Z,42.13
2018-11-22T07:19:27.278Z,34.13
2018-11-22T07:21:57.160Z,39.10
2018-11-22T07:24:26.723Z,37.60
2018-11-22T07:26:56.900Z,34.70
2018-11-22T07:29:45.639Z,42.60
2018-11-22T07:32:34.179Z,42.58
2018-11-22T07:35:04.114Z,38.53
2018-11-22T07:37:33.612Z,36.40
2018-11-22T07:40:23.641Z,35.78
2018-11-22T07:42:53.576Z,33.10
2018-11-22T07:45:27.984Z,31.97
2018-11-22T07:47:58.778Z,31.40
2018-11-22T07:50:28.694Z,36.17
2018-11-22T07:53:17.161Z,36.13
2018-11-22T07:55:46.764Z,34.60
2018-11-22T07:58:16.338Z,30.05
2018-11-22T08:00:45.937Z,38.55
2018-11-22T08:03:34.699Z,31.00
2018-11-22T08:06:04.186Z,36.88
2018-11-22T08:08:34.068Z,32.35
2018-11-22T08:11:03.890Z,35.40
2018-11-22T08:13:52.460Z,33.85
2018-11-22T08:16:22.288Z,38.63
2018-11-22T08:18:52.176Z,39.55
2018-11-22T08:21:22.159Z,31.95
2018-11-22T08:23:51.615Z,35.33
2018-11-22T08:26:21.175Z,35.00
2018-11-22T08:29:09.319Z,37.50
2018-11-22T08:31:39.250Z,40.95
2018-11-22T08:34:08.807Z,39.50
2018-11-22T08:36:38.719Z,34.03
2018-11-22T08:39:28.428Z,37.75
2018-11-22T08:41:58.000Z,37.88
2018-11-22T08:44:27.886Z,35.23
2018-11-22T08:46:57.477Z,35.25
2018-11-22T08:49:27.671Z,35.90
2018-11-22T08:52:16.160Z,34.50
2018-11-22T08:54:45.675Z,35.38
2018-11-22T08:57:15.208Z,41.70
2018-11-22T09:00:03.971Z,30.20
2018-11-22T09:02:52.164Z,33.42
2018-11-22T09:05:40.623Z,36.75
2018-11-22T09:08:10.220Z,37.48
2018-11-22T09:10:39.730Z,37.28
2018-11-22T09:13:09.238Z,36.48
2018-11-22T09:15:39.124Z,34.88
2018-11-22T09:18:28.161Z,34.70
2018-11-22T09:21:16.634Z,38.13
2018-11-22T09:23:46.240Z,38.20
2018-11-22T09:26:15.819Z,33.67
2018-11-22T09:28:45.988Z,32.30
2018-11-22T09:31:16.107Z,36.40
2018-11-22T09:34:04.284Z,39.23
2018-11-22T09:36:34.149Z,38.42
2018-11-22T09:39:03.877Z,37.78
2018-11-22T09:41:33.744Z,38.50
2018-11-22T09:44:03.265Z,41.05
2018-11-22T09:46:32.801Z,32.70
2018-11-22T09:49:02.726Z,36.75
2018-11-22T09:51:51.510Z,39.33
2018-11-22T09:54:21.017Z,37.38
2018-11-22T09:57:09.876Z,35.58
2018-11-22T09:59:39.676Z,34.88
2018-11-22T10:02:09.263Z,37.53
2018-11-22T10:04:38.900Z,36.25
2018-11-22T10:07:08.428Z,36.83
2018-11-22T10:09:57.305Z,35.75
2018-11-22T10:12:45.821Z,37.78
2018-11-22T10:15:35.634Z,34.38
2018-11-22T10:18:05.432Z,43.90
2018-11-22T10:20:53.977Z,44.90
2018-11-22T10:23:42.504Z,36.38
2018-11-22T10:26:11.952Z,36.95
2018-11-22T10:28:41.430Z,35.88
2018-11-22T10:31:10.894Z,38.67
2018-11-22T10:33:40.474Z,36.13
2018-11-22T10:36:09.986Z,36.03
2018-11-22T10:38:58.549Z,37.23
2018-11-22T10:41:28.046Z,35.63
2018-11-22T10:44:16.883Z,38.73
2018-11-22T10:46:46.744Z,32.13
2018-11-22T10:49:35.654Z,36.38
2018-11-22T10:52:24.363Z,37.65
2018-11-22T10:54:53.886Z,48.50
2018-11-22T10:57:42.450Z,43.55
2018-11-22T11:00:49.529Z,41.60
2018-11-22T11:03:37.787Z,38.25
2018-11-22T11:06:25.992Z,36.80
2018-11-22T11:08:55.879Z,37.85
2018-11-22T11:11:45.351Z,38.35
2018-11-22T11:14:33.941Z,37.35
2018-11-22T11:17:22.467Z,43.10
2018-11-22T11:20:11.502Z,36.90
2018-11-22T11:22:41.367Z,39.92
2018-11-22T11:25:29.545Z,32.80
2018-11-22T11:27:59.104Z,39.83
2018-11-22T11:30:28.728Z,37.70
2018-11-22T11:33:17.199Z,39.27
2018-11-22T11:35:47.065Z,40.33
2018-11-22T11:38:16.579Z,58.13
2018-11-22T11:40:46.170Z,38.95
2018-11-22T11:43:15.718Z,37.33
2018-11-22T11:46:03.879Z,35.60
2018-11-22T11:48:52.481Z,39.73
2018-11-22T11:51:22.275Z,42.50
2018-11-22T11:53:51.815Z,35.67
2018-11-22T11:56:22.329Z,37.80
2018-11-22T11:58:52.504Z,35.93
2018-11-22T12:01:22.070Z,37.90
2018-11-22T12:03:51.983Z,34.13
2018-11-22T12:06:21.545Z,35.83
2018-11-22T12:09:10.469Z,37.33
2018-11-22T12:11:39.961Z,35.43
2018-11-22T12:14:10.140Z,39.13
2018-11-22T12:16:58.669Z,34.03
2018-11-22T12:19:28.458Z,34.27
2018-11-22T12:21:58.212Z,36.53
2018-11-22T12:24:28.359Z,39.57
2018-11-22T12:27:16.830Z,36.90
2018-11-22T12:30:05.943Z,33.67
2018-11-22T12:32:47.086Z,39.20
2018-11-22T12:35:35.335Z,34.77
2018-11-22T12:38:23.840Z,35.43
2018-11-22T12:41:12.885Z,35.20
2018-11-22T12:44:01.487Z,34.67
2018-11-22T12:46:50.006Z,35.80
2018-11-22T12:49:19.487Z,36.23
2018-11-22T12:51:49.393Z,37.40
2018-11-22T12:54:18.861Z,32.40
2018-11-22T12:56:48.792Z,34.50
2018-11-22T12:59:18.692Z,32.23
2018-11-22T13:02:07.189Z,29.80
2018-11-22T13:04:36.639Z,33.53
2018-11-22T13:07:06.494Z,34.43
2018-11-22T13:09:36.083Z,40.00
2018-11-22T13:12:24.556Z,41.33
2018-11-22T13:15:14.301Z,34.23
2018-11-22T13:18:02.859Z,32.30
2018-11-22T13:20:51.377Z,36.33
2018-11-22T13:23:40.135Z,34.50
2018-11-22T13:26:09.986Z,35.17
2018-11-22T13:28:58.215Z,39.10
2018-11-22T13:31:28.183Z,34.30
2018-11-22T13:33:58.059Z,36.60
2018-11-22T13:36:27.623Z,37.80
2018-11-22T13:38:57.141Z,33.13
2018-11-22T13:41:45.579Z,57.57
2018-11-22T13:44:15.114Z,40.63
2018-11-22T13:46:44.644Z,41.93
2018-11-22T13:49:33.192Z,44.73
2018-11-22T13:52:02.738Z,37.77
2018-11-22T13:54:32.304Z,37.83
2018-11-22T13:57:21.165Z,41.73
2018-11-22T13:59:50.657Z,42.63
2018-11-22T14:02:38.951Z,33.13
2018-11-22T14:05:11.607Z,37.23
2018-11-22T14:07:38.409Z,30.53
2018-11-22T14:10:10.722Z,33.90
2018-11-22T14:12:40.723Z,32.73
2018-11-22T14:15:30.545Z,32.80
2018-11-22T14:18:19.068Z,32.17
2018-11-22T14:21:07.575Z,31.73
2018-11-22T14:23:37.198Z,37.27
2018-11-22T14:26:06.739Z,31.80
2018-11-22T14:28:36.543Z,34.33
2018-11-22T14:31:24.921Z,36.80
2018-11-22T14:34:13.076Z,43.23
2018-11-22T14:36:43.305Z,36.70
2018-11-22T14:39:12.827Z,32.40
2018-11-22T14:42:01.234Z,33.37
2018-11-22T14:44:30.800Z,31.73
2018-11-22T14:47:00.719Z,35.30
2018-11-22T14:49:41.697Z,37.37
2018-11-22T14:52:11.392Z,33.70
2018-11-22T14:54:41.615Z,34.17
2018-11-22T14:57:11.518Z,42.60
2018-11-22T14:59:41.200Z,37.70
2018-11-22T15:02:29.722Z,43.53
2018-11-22T15:05:18.553Z,43.20
2018-11-22T15:07:48.088Z,36.37
2018-11-22T15:10:17.985Z,39.30
2018-11-22T15:13:07.767Z,38.67
2018-11-22T15:15:57.050Z,38.03
2018-11-22T15:18:45.530Z,39.18
2018-11-22T15:21:15.363Z,37.35
2018-11-22T15:23:45.112Z,42.58
2018-11-22T15:26:33.666Z,41.55
2018-11-22T15:29:03.194Z,41.90
2018-11-22T15:31:51.802Z,45.83
2018-11-22T15:34:40.339Z,38.98
2018-11-22T15:37:28.557Z,43.73
2018-11-22T15:43:43.401Z,46.13
2018-11-22T15:46:13.718Z,43.83
2018-11-22T15:48:43.579Z,40.00
2018-11-22T15:51:13.155Z,51.60
2018-11-22T15:53:43.090Z,44.38
2018-11-22T15:56:12.611Z,43.30
2018-11-22T15:59:01.057Z,38.25
2018-11-22T16:01:31.303Z,39.73
2018-11-22T16:04:00.865Z,51.58
2018-11-22T16:06:30.704Z,41.02
2018-11-22T16:09:00.322Z,49.55
2018-11-22T16:11:29.969Z,45.20
2018-11-22T16:13:59.494Z,41.20
2018-11-22T16:16:48.312Z,43.60
2018-11-22T16:19:17.827Z,46.92
2018-11-22T16:21:47.754Z,45.78
2018-11-22T16:24:36.240Z,40.28
2018-11-22T16:27:06.508Z,44.85
2018-11-22T16:29:55.099Z,47.80
2018-11-22T16:32:24.601Z,44.40
2018-11-22T16:34:54.194Z,38.38
2018-11-22T16:37:23.669Z,54.38
2018-11-22T16:40:13.808Z,49.60
2018-11-22T16:42:44.332Z,50.38
2018-11-22T16:45:33.456Z,44.08
2018-11-22T16:48:07.640Z,44.33
2018-11-22T16:50:38.405Z,50.05
2018-11-22T16:53:26.883Z,49.58
2018-11-22T16:55:56.393Z,51.45
2018-11-22T16:58:44.651Z,49.18
2018-11-22T17:01:14.192Z,52.33
2018-11-22T17:03:43.904Z,50.12
2018-11-22T17:06:13.465Z,52.83
2018-11-22T17:09:02.009Z,54.42
2018-11-22T17:11:33.279Z,48.80
2018-11-22T17:14:01.022Z,47.60
2018-11-22T17:16:30.613Z,45.50
2018-11-22T17:19:00.162Z,51.70
2018-11-22T17:21:30.040Z,52.10
2018-11-22T17:23:59.947Z,47.17
2018-11-22T17:26:48.523Z,55.15
2018-11-22T17:29:17.995Z,51.23
2018-11-22T17:31:47.808Z,52.60
2018-11-22T17:34:17.637Z,73.70
2018-11-22T17:36:47.226Z,57.30
2018-11-22T17:39:35.790Z,62.98
2018-11-22T17:42:05.369Z,51.05
2018-11-22T17:44:34.950Z,49.42
2018-11-22T17:47:04.546Z,63.68
2018-11-22T17:49:34.057Z,60.05
2018-11-22T17:52:22.576Z,57.17
2018-11-22T17:54:52.479Z,62.78
2018-11-22T17:57:41.368Z,54.65
2018-11-22T18:00:48.497Z,59.18
2018-11-22T18:03:18.773Z,61.88
2018-11-22T18:06:07.272Z,54.35
2018-11-22T18:08:37.149Z,54.48
2018-11-22T18:11:06.990Z,55.33
2018-11-22T18:13:36.892Z,54.95
2018-11-22T18:16:25.439Z,53.30
2018-11-22T18:18:55.015Z,52.65
2018-11-22T18:21:43.507Z,58.28
2018-11-22T18:24:13.432Z,56.37
2018-11-22T18:26:42.989Z,57.98
2018-11-22T18:29:31.492Z,55.92
2018-11-22T18:32:01.022Z,56.53
2018-11-22T18:34:30.867Z,62.93
2018-11-22T18:37:19.148Z,52.30
2018-11-22T18:40:09.152Z,51.83
2018-11-22T18:42:39.332Z,55.25
2018-11-22T18:45:46.547Z,66.55
2018-11-22T18:48:17.306Z,64.82
2018-11-22T18:50:47.169Z,71.30
2018-11-22T18:53:16.635Z,55.67
2018-11-22T18:56:05.159Z,56.50
2018-11-22T18:58:34.705Z,57.73
2018-11-22T19:01:04.623Z,55.05
2018-11-22T19:03:34.939Z,55.88
2018-11-22T19:06:23.577Z,72.15
2018-11-22T19:08:53.310Z,59.60
2018-11-22T19:11:23.141Z,56.83
2018-11-22T19:14:11.632Z,56.10
2018-11-22T19:16:41.821Z,59.60
2018-11-22T19:19:11.349Z,57.08
2018-11-22T19:22:00.074Z,53.25
2018-11-22T19:24:48.753Z,48.45
2018-11-22T19:27:19.156Z,53.68
2018-11-22T19:29:48.873Z,49.88
2018-11-22T19:32:37.364Z,48.25
2018-11-22T19:35:08.647Z,54.55
2018-11-22T19:37:38.438Z,49.35
2018-11-22T19:40:24.224Z,51.37
2018-11-22T19:42:55.286Z,46.68
2018-11-22T19:45:45.455Z,53.25
2018-11-22T19:48:34.651Z,50.63
2018-11-22T19:51:05.871Z,49.67
2018-11-22T19:53:34.120Z,50.85
2018-11-22T19:56:22.754Z,62.60
2018-11-22T19:59:11.296Z,51.92
2018-11-22T20:01:41.166Z,48.83
2018-11-22T20:04:11.050Z,48.52
2018-11-22T20:06:40.595Z,52.20
2018-11-22T20:09:11.738Z,53.95
2018-11-22T20:11:41.565Z,52.30
2018-11-22T20:14:10.394Z,51.65
2018-11-22T20:16:39.938Z,55.67
2018-11-22T20:19:09.870Z,45.10
2018-11-22T20:21:39.383Z,48.55
2018-11-22T20:24:08.963Z,63.28
2018-11-22T20:26:38.595Z,51.60
2018-11-22T20:29:26.693Z,41.77
2018-11-22T20:31:56.290Z,50.92
2018-11-22T20:34:26.238Z,51.00
2018-11-22T20:37:15.012Z,57.05
2018-11-22T20:39:44.634Z,53.33
2018-11-22T20:42:14.758Z,64.75
2018-11-22T20:44:44.294Z,56.80
2018-11-22T20:47:14.204Z,53.00
2018-11-22T20:50:02.359Z,50.12
2018-11-22T20:52:31.866Z,50.75
2018-11-22T20:55:01.647Z,49.33
2018-11-22T20:57:51.275Z,51.63
2018-11-22T21:00:22.208Z,50.60
2018-11-22T21:03:10.364Z,55.08
2018-11-22T21:05:40.338Z,44.95
2018-11-22T21:08:29.145Z,52.30
2018-11-22T21:10:58.726Z,44.27
2018-11-22T21:13:28.662Z,49.67
2018-11-22T21:15:58.184Z,48.42
2018-11-22T21:18:28.037Z,44.95
2018-11-22T21:21:17.135Z,49.13
2018-11-22T21:23:46.688Z,51.60
2018-11-22T21:26:35.267Z,48.75
2018-11-22T21:29:04.883Z,49.70
2018-11-22T21:31:53.768Z,50.43
2018-11-22T21:37:17.754Z,48.90
2018-11-22T21:40:06.517Z,46.08
2018-11-22T21:42:55.291Z,49.40
2018-11-22T21:45:44.039Z,52.83
2018-11-22T21:48:13.956Z,54.23
2018-11-22T21:50:43.513Z,50.78
2018-11-22T21:53:13.029Z,53.85
2018-11-22T21:56:01.534Z,45.43
2018-11-22T21:58:31.351Z,51.60
2018-11-22T22:01:00.909Z,44.88
2018-11-22T22:03:30.422Z,50.70
2018-11-22T22:06:00.028Z,54.13
2018-11-22T22:08:29.545Z,53.52
2018-11-22T22:10:59.378Z,51.33
2018-11-22T22:13:28.902Z,56.20
2018-11-22T22:15:58.790Z,53.73
2018-11-22T22:18:28.332Z,51.23
2018-11-22T22:20:58.251Z,63.38
2018-11-22T22:23:46.822Z,53.73
2018-11-22T22:26:16.689Z,47.35
2018-11-22T22:28:46.245Z,47.83
2018-11-22T22:31:35.048Z,54.35
2018-11-22T22:34:04.659Z,57.10
2018-11-22T22:36:34.522Z,54.93
2018-11-22T22:39:05.406Z,48.40
2018-11-22T22:41:53.921Z,56.37
2018-11-22T22:44:24.093Z,59.50
2018-11-22T22:46:54.552Z,53.08
2018-11-22T22:49:24.408Z,56.63
2018-11-22T22:51:54.313Z,53.85
2018-11-22T22:54:25.273Z,48.42
2018-11-22T22:57:14.088Z,53.80
2018-11-22T23:00:03.000Z,58.28
2018-11-22T23:03:10.174Z,53.58
2018-11-22T23:05:58.974Z,53.63
2018-11-22T23:08:48.274Z,53.90
2018-11-22T23:11:50.860Z,50.25
2018-11-22T23:17:35.614Z,55.60
2018-11-22T23:20:05.862Z,57.25
2018-11-22T23:22:54.482Z,57.48
2018-11-22T23:25:25.361Z,63.25
2018-11-22T23:27:55.445Z,70.55
2018-11-22T23:30:44.099Z,72.45
2018-11-22T23:33:14.078Z,64.07
2018-11-22T23:36:02.699Z,68.70
2018-11-22T23:38:51.380Z,64.00
2018-11-22T23:41:22.827Z,63.70
2018-11-22T23:44:32.160Z,59.23
2018-11-22T23:47:01.800Z,59.23
2018-11-22T23:49:31.382Z,62.35
2018-11-22T23:52:19.880Z,57.67
2018-11-22T23:54:49.706Z,54.55
2018-11-22T23:57:19.178Z,52.30
2018-11-22T23:59:49.194Z,54.60
